createdAt,value
2022-12-12T00:01:29.703Z,-1.60
2022-12-12T00:03:57.877Z,-1.60
2022-12-12T00:06:26.191Z,-1.70
2022-12-12T00:08:54.767Z,-1.70
2022-12-12T00:11:26.818Z,-1.80
2022-12-12T00:13:55.363Z,-1.80
2022-12-12T00:16:25.799Z,-1.80
2022-12-12T00:18:54.241Z,-1.90
2022-12-12T00:21:24.723Z,-1.90
2022-12-12T00:23:56.905Z,-2.10
2022-12-12T00:26:26.492Z,-2.10
2022-12-12T00:28:54.798Z,-2.20
2022-12-12T00:35:02.913Z,-2.30
2022-12-12T00:37:30.842Z,-2.30
2022-12-12T00:39:58.709Z,-2.30
2022-12-12T00:42:27.340Z,-2.40
2022-12-12T00:44:55.180Z,-2.40
2022-12-12T00:47:23.125Z,-2.50
2022-12-12T00:49:50.968Z,-2.50
2022-12-12T00:52:20.233Z,-2.50
2022-12-12T00:54:48.255Z,-2.40
2022-12-12T00:57:16.185Z,-2.40
2022-12-12T00:59:44.035Z,-2.40
2022-12-12T01:02:12.437Z,-2.40
2022-12-12T01:04:40.316Z,-2.40
2022-12-12T01:07:08.231Z,-2.40
2022-12-12T01:09:37.601Z,-2.30
2022-12-12T01:12:05.703Z,-2.30
2022-12-12T01:14:34.276Z,-2.30
2022-12-12T01:17:02.220Z,-2.30
2022-12-12T01:19:31.335Z,-2.30
2022-12-12T01:21:59.478Z,-2.30
2022-12-12T01:24:27.387Z,-2.30
2022-12-12T01:26:56.687Z,-2.30
2022-12-12T01:29:24.490Z,-2.30
2022-12-12T01:31:52.455Z,-2.30
2022-12-12T01:34:20.308Z,-2.30
2022-12-12T01:36:48.106Z,-2.30
2022-12-12T01:39:15.965Z,-2.30
2022-12-12T01:41:44.687Z,-2.30
2022-12-12T01:44:43.794Z,-2.30
2022-12-12T01:47:13.046Z,-2.40
2022-12-12T01:49:43.312Z,-2.50
2022-12-12T01:52:14.860Z,-2.50
2022-12-12T01:54:46.467Z,-2.50
2022-12-12T01:57:17.683Z,-2.50
2022-12-12T01:59:48.030Z,-2.50
2022-12-12T02:02:16.007Z,-2.50
2022-12-12T02:04:44.419Z,-2.50
2022-12-12T02:07:12.604Z,-2.50
2022-12-12T02:09:41.079Z,-2.40
2022-12-12T02:12:09.065Z,-2.40
2022-12-12T02:14:39.461Z,-2.40
2022-12-12T02:17:52.311Z,-2.30
2022-12-12T02:20:49.970Z,-2.30
2022-12-12T02:23:53.195Z,-2.30
2022-12-12T02:26:57.968Z,-2.20
2022-12-12T02:30:08.169Z,-2.10
2022-12-12T02:33:07.846Z,-2.10
2022-12-12T02:35:45.418Z,-2.10
2022-12-12T02:38:22.708Z,-2.00
2022-12-12T02:41:01.483Z,-2.00
2022-12-12T02:43:36.716Z,-2.00
2022-12-12T02:46:09.468Z,-2.00
2022-12-12T02:48:44.160Z,-2.00
2022-12-12T02:51:15.015Z,-2.00
2022-12-12T02:53:42.864Z,-2.00
2022-12-12T02:56:45.740Z,-2.00
2022-12-12T02:59:17.809Z,-1.90
2022-12-12T03:02:12.499Z,-1.90
2022-12-12T03:05:15.024Z,-1.90
2022-12-12T03:07:52.724Z,-1.80
2022-12-12T03:10:38.220Z,-1.90
2022-12-12T03:13:12.866Z,-1.80
2022-12-12T03:15:48.602Z,-1.80
2022-12-12T03:18:25.659Z,-1.80
2022-12-12T03:20:58.311Z,-1.80
2022-12-12T03:23:30.042Z,-1.90
2022-12-12T03:26:02.816Z,-1.90
2022-12-12T03:28:35.809Z,-2.00
2022-12-12T03:31:07.632Z,-2.10
2022-12-12T03:40:28.639Z,-2.10
2022-12-12T03:43:01.566Z,-2.20
2022-12-12T03:45:35.530Z,-2.20
2022-12-12T03:48:09.294Z,-2.20
2022-12-12T03:50:43.677Z,-2.20
2022-12-12T03:53:16.160Z,-2.30
2022-12-12T03:55:50.175Z,-2.30
2022-12-12T03:58:23.577Z,-2.30
2022-12-12T04:00:54.636Z,-2.30
2022-12-12T04:03:28.354Z,-2.30
2022-12-12T04:06:19.285Z,-2.30
2022-12-12T04:09:02.152Z,-2.40
2022-12-12T04:11:55.311Z,-2.40
2022-12-12T04:14:57.514Z,-2.40
2022-12-12T04:17:34.866Z,-2.50
2022-12-12T04:20:27.366Z,-2.60
2022-12-12T04:23:35.959Z,-2.70
2022-12-12T04:26:27.575Z,-2.70
2022-12-12T04:29:03.979Z,-2.80
2022-12-12T04:31:35.925Z,-2.80
2022-12-12T04:34:08.771Z,-2.90
2022-12-12T04:36:37.710Z,-2.90
2022-12-12T04:39:08.160Z,-3.00
2022-12-12T04:41:38.787Z,-3.00
2022-12-12T04:44:11.766Z,-3.00
2022-12-12T04:46:41.550Z,-3.10
2022-12-12T04:49:15.226Z,-3.10
2022-12-12T04:51:46.187Z,-3.20
2022-12-12T04:54:22.647Z,-3.20
2022-12-12T04:56:54.651Z,-3.30
2022-12-12T04:59:24.650Z,-3.40
2022-12-12T05:01:58.491Z,-3.40
2022-12-12T05:04:32.083Z,-3.50
2022-12-12T05:07:03.596Z,-3.50
2022-12-12T05:09:31.802Z,-3.60
2022-12-12T05:12:00.255Z,-3.60
2022-12-12T05:14:31.057Z,-3.60
2022-12-12T05:17:04.408Z,-3.70
2022-12-12T05:19:32.351Z,-3.70
2022-12-12T05:22:00.211Z,-3.80
2022-12-12T05:24:31.968Z,-3.80
2022-12-12T05:27:00.451Z,-3.70
2022-12-12T05:29:29.615Z,-3.70
2022-12-12T05:31:57.902Z,-3.70
2022-12-12T05:34:25.739Z,-3.80
2022-12-12T05:36:53.770Z,-3.90
2022-12-12T05:39:22.170Z,-3.90
2022-12-12T05:41:50.862Z,-3.90
2022-12-12T05:44:18.667Z,-4.00
2022-12-12T05:46:47.867Z,-4.00
2022-12-12T05:49:15.731Z,-4.00
2022-12-12T05:51:46.827Z,-4.10
2022-12-12T05:54:14.735Z,-4.10
2022-12-12T05:56:42.610Z,-4.10
2022-12-12T05:59:10.452Z,-4.10
2022-12-12T06:01:38.310Z,-4.20
2022-12-12T06:04:07.957Z,-4.20
2022-12-12T06:06:35.892Z,-4.20
2022-12-12T06:09:03.728Z,-4.30
2022-12-12T06:11:31.603Z,-4.30
2022-12-12T06:14:01.624Z,-4.30
2022-12-12T06:16:29.551Z,-4.30
2022-12-12T06:18:57.653Z,-4.20
2022-12-12T06:21:26.892Z,-4.20
2022-12-12T06:23:54.779Z,-4.20
2022-12-12T06:26:23.112Z,-4.20
2022-12-12T06:28:51.333Z,-4.20
2022-12-12T06:31:19.322Z,-4.20
2022-12-12T06:33:47.280Z,-4.20
2022-12-12T06:36:22.502Z,-4.20
2022-12-12T06:38:52.748Z,-4.20
2022-12-12T06:41:21.632Z,-4.20
2022-12-12T06:43:50.179Z,-4.30
2022-12-12T06:46:20.321Z,-4.30
2022-12-12T06:48:48.515Z,-4.30
2022-12-12T06:51:18.428Z,-4.40
2022-12-12T06:53:46.302Z,-4.40
2022-12-12T06:56:17.817Z,-4.50
2022-12-12T06:58:46.008Z,-4.50
2022-12-12T07:01:16.241Z,-4.50
2022-12-12T07:03:44.484Z,-4.50
2022-12-12T07:06:12.493Z,-4.50
2022-12-12T07:08:40.454Z,-4.50
2022-12-12T07:11:11.366Z,-4.50
2022-12-12T07:13:40.624Z,-4.40
2022-12-12T07:16:09.268Z,-4.40
2022-12-12T07:18:37.679Z,-4.30
2022-12-12T07:21:06.626Z,-4.20
2022-12-12T07:23:34.786Z,-4.20
2022-12-12T07:26:09.774Z,-4.10
2022-12-12T07:28:38.555Z,-4.00
2022-12-12T07:31:09.502Z,-4.00
2022-12-12T07:33:43.515Z,-3.90
2022-12-12T07:36:12.441Z,-3.80
2022-12-12T07:38:40.575Z,-3.70
2022-12-12T07:41:11.790Z,-3.70
2022-12-12T07:43:44.171Z,-3.60
2022-12-12T07:46:16.277Z,-3.60
2022-12-12T07:48:44.652Z,-3.50
2022-12-12T07:51:12.920Z,-3.50
2022-12-12T07:53:40.980Z,-3.40
2022-12-12T07:56:10.627Z,-3.40
2022-12-12T07:58:39.279Z,-3.30
2022-12-12T08:01:14.342Z,-3.20
2022-12-12T08:03:44.874Z,-3.10
2022-12-12T08:06:13.586Z,-3.10
2022-12-12T08:08:41.641Z,-3.00
2022-12-12T08:11:11.351Z,-2.90
2022-12-12T08:13:40.498Z,-2.90
2022-12-12T08:16:13.743Z,-2.80
2022-12-12T08:18:41.595Z,-2.80
2022-12-12T08:21:12.053Z,-2.70
2022-12-12T08:23:40.308Z,-2.60
2022-12-12T08:26:09.969Z,-2.60
2022-12-12T08:28:38.995Z,-2.50
2022-12-12T08:31:06.891Z,-2.50
2022-12-12T08:33:34.915Z,-2.40
2022-12-12T08:36:14.352Z,-2.30
2022-12-12T08:38:42.511Z,-2.30
2022-12-12T08:41:11.483Z,-2.20
2022-12-12T08:43:40.103Z,-2.10
2022-12-12T08:46:13.833Z,-2.00
2022-12-12T08:48:45.194Z,-2.00
2022-12-12T08:51:14.663Z,-2.00
2022-12-12T08:53:45.058Z,-1.90
2022-12-12T08:56:12.906Z,-1.80
2022-12-12T08:58:41.029Z,-1.70
2022-12-12T09:01:12.259Z,-1.60
2022-12-12T09:03:40.890Z,-1.50
2022-12-12T09:06:10.216Z,-1.40
2022-12-12T09:08:39.820Z,-1.30
2022-12-12T09:11:08.193Z,-1.20
2022-12-12T09:13:36.560Z,-1.20
2022-12-12T09:16:05.152Z,-1.10
2022-12-12T09:18:33.075Z,-1.00
2022-12-12T09:21:01.125Z,-0.90
2022-12-12T09:23:29.453Z,-0.80
2022-12-12T09:25:59.088Z,-0.70
2022-12-12T09:28:27.755Z,-0.70
2022-12-12T09:30:55.784Z,-0.60
2022-12-12T09:33:23.679Z,-0.50
2022-12-12T09:35:59.911Z,-0.40
2022-12-12T09:38:28.797Z,-0.40
2022-12-12T09:41:00.271Z,-0.30
2022-12-12T09:43:31.124Z,-0.10
2022-12-12T09:45:59.976Z,-0.10
2022-12-12T09:48:36.609Z,-0.10
2022-12-12T09:51:05.018Z,0.00
2022-12-12T09:53:32.941Z,0.10
2022-12-12T09:56:09.154Z,0.20
2022-12-12T09:58:49.119Z,0.30
2022-12-12T10:01:24.754Z,0.50
2022-12-12T10:04:04.516Z,0.60
2022-12-12T10:06:39.774Z,0.70
2022-12-12T10:09:24.064Z,0.90
2022-12-12T10:11:55.321Z,1.00
2022-12-12T10:14:29.021Z,0.90
2022-12-12T10:16:59.366Z,1.10
2022-12-12T10:19:30.770Z,1.30
2022-12-12T10:22:04.756Z,1.40
2022-12-12T10:24:38.130Z,1.50
2022-12-12T10:27:12.411Z,1.50
2022-12-12T10:29:44.552Z,1.60
2022-12-12T10:32:18.541Z,1.70
2022-12-12T10:35:00.079Z,1.80
2022-12-12T10:37:39.120Z,1.90
2022-12-12T10:40:20.488Z,2.10
2022-12-12T10:42:56.354Z,2.40
2022-12-12T10:45:38.281Z,2.70
2022-12-12T10:48:06.663Z,3.20
2022-12-12T10:50:38.039Z,3.50
2022-12-12T10:53:08.765Z,3.70
2022-12-12T10:55:42.937Z,4.00
2022-12-12T10:58:12.554Z,4.10
2022-12-12T11:00:42.654Z,4.40
2022-12-12T11:03:22.172Z,4.60
2022-12-12T11:05:50.556Z,4.90
2022-12-12T11:08:26.778Z,4.80
2022-12-12T11:11:04.421Z,4.70
2022-12-12T11:13:40.926Z,4.70
2022-12-12T11:16:13.939Z,5.00
2022-12-12T11:18:42.034Z,4.80
2022-12-12T11:21:11.815Z,4.70
2022-12-12T11:23:42.352Z,4.80
2022-12-12T11:26:15.099Z,4.60
2022-12-12T11:28:46.245Z,4.40
2022-12-12T11:31:17.150Z,4.30
2022-12-12T11:33:49.007Z,4.30
2022-12-12T11:36:20.025Z,4.20
2022-12-12T11:38:51.103Z,4.00
2022-12-12T11:41:19.130Z,3.90
2022-12-12T11:44:01.233Z,3.80
2022-12-12T11:46:31.073Z,3.50
2022-12-12T11:49:01.509Z,3.50
2022-12-12T11:51:35.795Z,3.40
2022-12-12T11:54:06.004Z,3.30
2022-12-12T11:56:44.574Z,3.00
2022-12-12T11:59:30.231Z,2.80
2022-12-12T12:02:06.462Z,2.60
2022-12-12T12:04:52.867Z,2.60
2022-12-12T12:07:44.775Z,2.50
2022-12-12T12:10:24.108Z,2.50
2022-12-12T12:13:00.347Z,2.40
2022-12-12T12:15:39.181Z,2.30
2022-12-12T12:18:36.486Z,2.30
2022-12-12T12:21:33.244Z,2.30
2022-12-12T12:24:15.290Z,2.20
2022-12-12T12:26:52.771Z,2.20
2022-12-12T12:29:45.196Z,2.20
2022-12-12T12:32:23.003Z,2.10
2022-12-12T12:35:04.331Z,2.00
2022-12-12T12:37:46.507Z,2.10
2022-12-12T12:40:27.974Z,2.00
2022-12-12T12:43:11.339Z,1.90
2022-12-12T12:45:46.432Z,1.90
2022-12-12T12:48:21.506Z,1.90
2022-12-12T12:50:53.862Z,2.00
2022-12-12T12:53:30.487Z,2.00
2022-12-12T12:56:02.323Z,2.00
2022-12-12T12:58:34.916Z,1.90
2022-12-12T13:01:09.207Z,2.00
2022-12-12T13:03:46.621Z,2.10
2022-12-12T13:06:22.057Z,2.10
2022-12-12T13:08:58.247Z,2.20
2022-12-12T13:11:32.782Z,2.30
2022-12-12T13:14:08.342Z,2.20
2022-12-12T13:16:36.483Z,2.30
2022-12-12T13:19:11.918Z,2.30
2022-12-12T13:21:47.698Z,2.30
2022-12-12T13:24:22.835Z,2.20
2022-12-12T13:26:59.048Z,2.30
2022-12-12T13:29:34.411Z,2.20
2022-12-12T13:32:23.519Z,2.30
2022-12-12T13:34:57.263Z,2.30
2022-12-12T13:37:25.264Z,2.30
2022-12-12T13:40:00.934Z,2.30
2022-12-12T13:42:53.549Z,2.30
2022-12-12T13:45:43.841Z,2.40
2022-12-12T13:48:35.253Z,2.40
2022-12-12T13:51:39.878Z,2.30
2022-12-12T13:54:54.623Z,2.30
2022-12-12T13:57:29.297Z,2.30
2022-12-12T14:00:24.212Z,2.40
2022-12-12T14:03:02.117Z,2.40
2022-12-12T14:05:33.957Z,2.30
2022-12-12T14:08:08.219Z,2.30
2022-12-12T14:10:40.448Z,2.30
2022-12-12T14:13:20.419Z,2.10
2022-12-12T14:15:51.084Z,2.20
2022-12-12T14:18:25.849Z,2.10
2022-12-12T14:21:02.190Z,2.00
2022-12-12T14:23:33.853Z,1.90
2022-12-12T14:26:02.399Z,2.00
2022-12-12T14:28:31.803Z,2.00
2022-12-12T14:31:15.737Z,2.00
2022-12-12T14:34:25.903Z,1.90
2022-12-12T14:37:32.690Z,1.80
2022-12-12T14:40:16.335Z,1.70
2022-12-12T14:43:19.725Z,1.60
2022-12-12T14:45:41.449Z,1.60
2022-12-12T14:48:18.384Z,1.50
2022-12-12T14:50:53.574Z,1.40
2022-12-12T14:53:23.983Z,1.30
2022-12-12T14:55:56.870Z,1.10
2022-12-12T14:58:28.373Z,1.10
2022-12-12T15:00:58.792Z,1.00
2022-12-12T15:03:31.763Z,1.00
2022-12-12T15:06:26.741Z,0.90
2022-12-12T15:08:55.271Z,0.80
2022-12-12T15:11:26.703Z,0.70
2022-12-12T15:13:56.171Z,0.70
2022-12-12T15:16:30.653Z,0.60
2022-12-12T15:19:00.779Z,0.60
2022-12-12T15:21:32.007Z,0.50
2022-12-12T15:24:00.466Z,0.40
2022-12-12T15:26:30.770Z,0.30
2022-12-12T15:28:58.995Z,0.20
2022-12-12T15:31:27.071Z,0.20
2022-12-12T15:33:54.993Z,0.10
2022-12-12T15:36:27.894Z,-0.10
2022-12-12T15:39:21.128Z,-0.10
2022-12-12T15:41:51.018Z,-0.30
2022-12-12T15:44:21.886Z,-0.40
2022-12-12T15:46:50.814Z,-0.40
2022-12-12T15:49:39.354Z,-0.50
2022-12-12T15:52:19.010Z,-0.60
2022-12-12T15:54:49.680Z,-0.70
2022-12-12T15:57:22.993Z,-0.80
2022-12-12T15:59:56.356Z,-0.90
2022-12-12T16:02:26.592Z,-0.90
2022-12-12T16:04:56.403Z,-1.00
2022-12-12T16:07:24.968Z,-1.00
2022-12-12T16:10:01.019Z,-1.10
2022-12-12T16:13:02.184Z,-1.20
2022-12-12T16:15:36.793Z,-1.30
2022-12-12T16:18:07.804Z,-1.50
2022-12-12T16:20:36.215Z,-1.50
2022-12-12T16:23:29.947Z,-1.60
2022-12-12T16:39:45.496Z,-1.90
2022-12-12T16:42:15.397Z,-2.00
